createdAt,value
2022-09-13T00:01:32.421Z,22.4
2022-09-13T00:21:32.456Z,22.4
2022-09-13T00:41:32.358Z,22.4
2022-09-13T01:01:32.373Z,22.3
2022-09-13T01:21:32.317Z,22.3
2022-09-13T01:41:32.334Z,22.3
2022-09-13T02:01:32.269Z,22.3
2022-09-13T02:21:32.293Z,22.2
2022-09-13T02:41:32.241Z,22.2
2022-09-13T03:01:32.185Z,22.2
2022-09-13T03:21:32.159Z,22.2
2022-09-13T03:41:32.160Z,22.2
2022-09-13T04:01:32.139Z,22.1
2022-09-13T04:21:32.066Z,22.1
2022-09-13T04:41:32.103Z,22.1
2022-09-13T05:01:32.036Z,22.1
2022-09-13T05:21:32.042Z,22.1
2022-09-13T05:41:32.024Z,22.1
2022-09-13T06:01:31.976Z,22.1
2022-09-13T06:21:31.953Z,19.4
2022-09-13T06:41:31.929Z,18.8
2022-09-13T07:01:31.884Z,18.8
2022-09-13T07:21:31.844Z,18.9
2022-09-13T07:41:31.844Z,19.0
2022-09-13T08:01:31.824Z,19.2
2022-09-13T08:21:31.809Z,19.3
2022-09-13T08:41:31.760Z,20.1
2022-09-13T09:01:31.724Z,20.7
2022-09-13T09:21:31.812Z,21.0
2022-09-13T09:41:31.844Z,21.3
2022-09-13T10:01:31.702Z,21.5
2022-09-13T10:21:31.718Z,21.6
2022-09-13T10:41:31.612Z,21.7
2022-09-13T11:01:31.594Z,21.8
2022-09-13T11:21:31.558Z,21.9
2022-09-13T11:41:31.516Z,22.0
2022-09-13T12:01:31.579Z,21.9
2022-09-13T12:21:31.492Z,22.0
2022-09-13T12:41:31.443Z,22.1
2022-09-13T13:01:31.436Z,22.2
2022-09-13T13:21:31.400Z,22.3
2022-09-13T13:41:31.359Z,22.3
2022-09-13T14:01:31.361Z,22.4
2022-09-13T14:21:31.376Z,22.5
2022-09-13T14:41:31.279Z,22.5
2022-09-13T15:01:31.269Z,22.4
2022-09-13T15:21:31.272Z,22.4
2022-09-13T15:41:31.219Z,22.4
2022-09-13T16:01:31.216Z,22.3
2022-09-13T16:21:31.169Z,22.2
2022-09-13T16:41:31.177Z,22.2
2022-09-13T17:01:31.234Z,22.2
2022-09-13T17:21:31.117Z,22.2
2022-09-13T17:41:31.063Z,22.1
2022-09-13T18:01:31.053Z,22.1
2022-09-13T18:21:31.041Z,22.4
2022-09-13T18:41:31.010Z,22.5
2022-09-13T19:01:30.986Z,22.6
2022-09-13T19:21:30.953Z,22.9
2022-09-13T19:41:30.942Z,23.0
2022-09-13T20:01:30.913Z,22.9
2022-09-13T20:21:30.856Z,22.7
2022-09-13T20:41:30.819Z,22.6
2022-09-13T21:01:30.825Z,22.5
2022-09-13T21:21:30.808Z,22.5
2022-09-13T21:41:30.746Z,22.4
2022-09-13T22:01:30.728Z,22.4
2022-09-13T22:21:30.717Z,22.4
2022-09-13T22:41:30.695Z,22.3
2022-09-13T23:01:30.634Z,22.3
2022-09-13T23:21:30.615Z,22.3
2022-09-13T23:41:30.600Z,22.2
